createdAt,value
2023-04-09T00:01:24.321Z,9.60
2023-04-09T00:03:52.326Z,9.60
2023-04-09T00:06:20.267Z,9.50
2023-04-09T00:08:48.113Z,9.50
2023-04-09T00:11:15.939Z,9.50
2023-04-09T00:13:45.134Z,9.50
2023-04-09T00:16:13.107Z,9.50
2023-04-09T00:18:41.351Z,9.50
2023-04-09T00:21:09.631Z,9.40
2023-04-09T00:23:37.469Z,9.40
2023-04-09T00:26:05.552Z,9.40
2023-04-09T00:28:33.440Z,9.30
2023-04-09T00:31:02.831Z,9.30
2023-04-09T00:33:30.861Z,9.20
2023-04-09T00:35:58.870Z,9.20
2023-04-09T00:38:27.103Z,9.20
2023-04-09T00:40:55.047Z,9.20
2023-04-09T00:43:23.031Z,9.20
2023-04-09T00:45:51.164Z,9.20
2023-04-09T00:48:20.496Z,9.30
2023-04-09T00:50:48.375Z,9.30
2023-04-09T00:53:17.054Z,9.20
2023-04-09T00:55:45.769Z,9.20
2023-04-09T00:58:14.486Z,9.30
2023-04-09T01:00:42.367Z,9.30
2023-04-09T01:03:10.336Z,9.30
2023-04-09T01:05:52.288Z,9.30
2023-04-09T01:08:32.891Z,9.30
2023-04-09T01:11:09.054Z,9.30
2023-04-09T01:13:43.606Z,9.30
2023-04-09T01:16:13.307Z,9.30
2023-04-09T01:18:45.601Z,9.30
2023-04-09T01:21:17.326Z,9.20
2023-04-09T01:23:55.781Z,9.20
2023-04-09T01:26:39.313Z,9.20
2023-04-09T01:29:08.912Z,9.20
2023-04-09T01:31:40.017Z,9.20
2023-04-09T01:34:10.777Z,9.20
2023-04-09T01:36:40.738Z,9.20
2023-04-09T01:39:09.803Z,9.20
2023-04-09T01:41:38.979Z,9.20
2023-04-09T01:44:10.789Z,9.20
2023-04-09T01:46:40.396Z,9.20
2023-04-09T01:49:10.122Z,9.10
2023-04-09T01:51:38.651Z,9.10
2023-04-09T01:54:06.550Z,9.10
2023-04-09T01:56:44.605Z,9.10
2023-04-09T01:59:14.078Z,9.10
2023-04-09T02:01:46.342Z,9.10
2023-04-09T02:04:21.004Z,9.10
2023-04-09T02:06:54.922Z,9.10
2023-04-09T02:09:24.723Z,9.00
2023-04-09T02:11:54.212Z,9.00
2023-04-09T02:14:24.981Z,9.00
2023-04-09T02:16:53.291Z,9.00
2023-04-09T02:19:21.149Z,9.00
2023-04-09T02:21:49.014Z,9.00
2023-04-09T02:24:16.880Z,9.00
2023-04-09T02:26:44.690Z,9.00
2023-04-09T02:29:12.597Z,9.00
2023-04-09T02:31:41.803Z,8.90
2023-04-09T02:34:09.704Z,9.00
2023-04-09T02:36:37.597Z,9.00
2023-04-09T02:39:05.610Z,9.00
2023-04-09T02:41:33.459Z,9.00
2023-04-09T02:44:01.254Z,9.00
2023-04-09T02:46:29.230Z,9.00
2023-04-09T02:48:58.421Z,9.00
2023-04-09T02:51:27.343Z,8.90
2023-04-09T02:53:55.241Z,9.00
2023-04-09T02:56:23.126Z,9.00
2023-04-09T02:58:54.057Z,9.00
2023-04-09T03:01:22.227Z,8.90
2023-04-09T03:03:50.437Z,8.90
2023-04-09T03:06:19.899Z,8.90
2023-04-09T03:08:47.830Z,8.90
2023-04-09T03:11:15.842Z,8.90
2023-04-09T03:13:43.734Z,8.90
2023-04-09T03:16:11.595Z,8.80
2023-04-09T03:18:39.547Z,8.80
2023-04-09T03:21:08.379Z,8.80
2023-04-09T03:23:37.626Z,8.80
2023-04-09T03:26:06.891Z,8.80
2023-04-09T03:28:34.821Z,8.80
2023-04-09T03:31:02.766Z,8.80
2023-04-09T03:33:30.741Z,8.80
2023-04-09T03:35:58.731Z,8.80
2023-04-09T03:38:26.604Z,8.80
2023-04-09T03:40:56.973Z,8.80
2023-04-09T03:43:24.904Z,8.80
2023-04-09T03:45:52.764Z,8.90
2023-04-09T03:48:20.666Z,8.80
2023-04-09T03:50:48.525Z,8.80
2023-04-09T03:53:16.407Z,8.80
2023-04-09T03:55:44.341Z,8.80
2023-04-09T03:58:13.558Z,8.80
2023-04-09T04:00:41.435Z,8.70
2023-04-09T04:03:09.566Z,8.70
2023-04-09T04:05:37.751Z,8.70
2023-04-09T04:08:05.729Z,8.60
2023-04-09T04:10:35.130Z,8.60
2023-04-09T04:13:03.072Z,8.60
2023-04-09T04:15:32.284Z,8.50
2023-04-09T04:18:00.155Z,8.50
2023-04-09T04:20:28.034Z,8.50
2023-04-09T04:22:55.897Z,8.60
2023-04-09T04:25:23.812Z,8.60
2023-04-09T04:27:51.752Z,8.60
2023-04-09T04:30:19.688Z,8.60
2023-04-09T04:32:49.036Z,8.60
2023-04-09T04:35:17.245Z,8.60
2023-04-09T04:37:45.164Z,8.60
2023-04-09T04:40:13.083Z,8.60
2023-04-09T04:42:40.952Z,8.60
2023-04-09T04:45:10.192Z,8.60
2023-04-09T04:47:38.194Z,8.60
2023-04-09T04:50:09.333Z,8.60
2023-04-09T04:52:38.797Z,8.60
2023-04-09T04:55:07.432Z,8.60
2023-04-09T04:57:35.364Z,8.60
2023-04-09T05:00:03.261Z,8.60
2023-04-09T05:02:31.195Z,8.60
2023-04-09T05:04:59.158Z,8.60
2023-04-09T05:07:28.370Z,8.60
2023-04-09T05:09:56.214Z,8.60
2023-04-09T05:12:24.239Z,8.60
2023-04-09T05:14:52.105Z,8.60
2023-04-09T05:17:20.083Z,8.60
2023-04-09T05:19:52.581Z,8.60
2023-04-09T05:22:20.636Z,8.60
2023-04-09T05:24:49.794Z,8.60
2023-04-09T05:27:19.343Z,8.60
2023-04-09T05:29:47.179Z,8.60
2023-04-09T05:32:15.951Z,8.60
2023-04-09T05:34:43.815Z,8.60
2023-04-09T05:37:11.735Z,8.50
2023-04-09T05:39:39.632Z,8.50
2023-04-09T05:42:08.856Z,8.50
2023-04-09T05:44:36.950Z,8.50
2023-04-09T05:47:04.965Z,8.50
2023-04-09T05:49:32.834Z,8.50
2023-04-09T05:52:00.809Z,8.50
2023-04-09T05:54:28.696Z,8.50
2023-04-09T05:56:56.621Z,8.50
2023-04-09T05:59:26.015Z,8.50
2023-04-09T06:01:53.912Z,8.40
2023-04-09T06:04:21.970Z,8.40
2023-04-09T06:06:49.882Z,8.50
2023-04-09T06:09:17.720Z,8.50
2023-04-09T06:11:45.724Z,8.50
2023-04-09T06:14:16.500Z,8.70
2023-04-09T06:16:45.773Z,9.00
2023-04-09T06:19:13.691Z,9.30
2023-04-09T06:21:42.446Z,9.50
2023-04-09T06:24:10.358Z,9.80
2023-04-09T06:26:38.322Z,9.90
2023-04-09T06:29:06.253Z,10.10
2023-04-09T06:31:34.445Z,10.20
2023-04-09T06:34:03.799Z,10.30
2023-04-09T06:36:31.690Z,10.30
2023-04-09T06:39:00.068Z,10.30
2023-04-09T06:41:28.138Z,10.30
2023-04-09T06:43:56.067Z,10.30
2023-04-09T06:46:24.022Z,10.40
2023-04-09T06:48:51.920Z,10.30
2023-04-09T06:51:21.277Z,10.30
2023-04-09T06:53:49.802Z,10.40
2023-04-09T06:56:17.890Z,10.40
2023-04-09T06:58:45.897Z,10.40
2023-04-09T07:01:13.889Z,10.40
2023-04-09T07:03:41.939Z,10.40
2023-04-09T07:06:09.988Z,10.40
2023-04-09T07:08:39.326Z,10.50
2023-04-09T07:11:07.269Z,10.60
2023-04-09T07:13:35.274Z,10.70
2023-04-09T07:16:03.221Z,10.80
2023-04-09T07:18:31.797Z,10.90
2023-04-09T07:20:59.659Z,11.00
2023-04-09T07:23:27.575Z,11.20
2023-04-09T07:25:56.814Z,11.50
2023-04-09T07:28:24.649Z,11.90
2023-04-09T07:30:53.348Z,12.30
2023-04-09T07:33:21.239Z,12.80
2023-04-09T07:35:49.155Z,13.20
2023-04-09T07:38:17.260Z,13.60
2023-04-09T07:40:45.427Z,14.00
2023-04-09T07:43:14.679Z,14.30
2023-04-09T07:45:42.563Z,14.50
2023-04-09T07:48:10.409Z,14.90
2023-04-09T07:50:38.274Z,15.00
2023-04-09T07:53:06.217Z,15.20
2023-04-09T07:55:34.117Z,15.40
2023-04-09T07:58:01.989Z,15.60
2023-04-09T08:00:31.511Z,15.80
2023-04-09T08:02:59.771Z,16.00
2023-04-09T08:05:28.329Z,15.90
2023-04-09T08:07:56.170Z,15.70
2023-04-09T08:10:24.039Z,15.70
2023-04-09T08:12:52.001Z,15.70
2023-04-09T08:15:20.050Z,15.80
2023-04-09T08:17:49.325Z,15.90
2023-04-09T08:20:17.859Z,15.90
2023-04-09T08:22:45.687Z,15.90
2023-04-09T08:25:13.531Z,15.90
2023-04-09T08:27:41.427Z,16.00
2023-04-09T08:30:10.613Z,16.00
2023-04-09T08:32:38.523Z,16.00
2023-04-09T08:35:09.054Z,16.10
2023-04-09T08:37:36.976Z,16.10
2023-04-09T08:40:05.425Z,16.10
2023-04-09T08:42:35.577Z,15.80
2023-04-09T08:45:05.648Z,15.70
2023-04-09T08:47:35.185Z,15.50
2023-04-09T08:50:03.176Z,15.60
2023-04-09T08:52:34.626Z,15.60
2023-04-09T08:55:02.780Z,15.80
2023-04-09T08:57:31.126Z,16.00
2023-04-09T08:59:59.542Z,15.90
2023-04-09T09:02:27.519Z,15.70
2023-04-09T09:05:00.749Z,15.50
2023-04-09T09:07:29.529Z,15.30
2023-04-09T09:10:00.179Z,15.20
2023-04-09T09:12:39.564Z,15.10
2023-04-09T09:15:27.211Z,15.00
2023-04-09T09:17:56.733Z,15.10
2023-04-09T09:20:26.560Z,15.20
2023-04-09T09:22:55.804Z,15.50
2023-04-09T09:25:26.282Z,15.80
2023-04-09T09:27:55.269Z,15.80
2023-04-09T09:30:24.231Z,15.70
2023-04-09T09:32:54.666Z,15.90
2023-04-09T09:35:23.392Z,16.00
2023-04-09T09:38:03.015Z,16.20
2023-04-09T09:40:32.639Z,16.30
2023-04-09T09:43:00.711Z,16.60
2023-04-09T09:45:30.224Z,16.80
2023-04-09T09:47:58.113Z,17.00
2023-04-09T09:50:27.104Z,17.30
2023-04-09T09:53:03.106Z,17.50
2023-04-09T09:55:33.570Z,17.60
2023-04-09T09:58:04.558Z,17.70
2023-04-09T10:00:33.385Z,17.50
2023-04-09T10:03:15.212Z,17.40
2023-04-09T10:05:43.271Z,17.30
2023-04-09T10:08:12.303Z,17.20
2023-04-09T10:10:43.089Z,17.00
2023-04-09T10:13:15.525Z,17.00
2023-04-09T10:15:45.088Z,17.10
2023-04-09T10:18:13.292Z,17.20
2023-04-09T10:20:48.872Z,17.40
2023-04-09T10:23:25.170Z,17.60
2023-04-09T10:25:55.020Z,17.90
2023-04-09T10:28:24.539Z,17.90
2023-04-09T10:30:55.285Z,17.70
2023-04-09T10:33:26.552Z,17.50
2023-04-09T10:35:55.724Z,17.30
2023-04-09T10:38:37.323Z,17.20
2023-04-09T10:41:13.949Z,16.90
2023-04-09T10:43:41.952Z,16.80
2023-04-09T10:46:27.663Z,16.80
2023-04-09T10:49:13.648Z,16.80
2023-04-09T10:51:42.381Z,16.90
2023-04-09T10:54:43.667Z,16.80
2023-04-09T10:57:20.722Z,16.70
2023-04-09T10:59:50.652Z,16.60
2023-04-09T11:02:57.238Z,16.60
2023-04-09T11:05:32.472Z,16.50
2023-04-09T11:08:06.767Z,16.60
2023-04-09T11:10:35.196Z,16.50
2023-04-09T11:13:04.850Z,16.40
2023-04-09T11:15:35.423Z,16.30
2023-04-09T11:18:03.678Z,16.20
2023-04-09T11:20:32.037Z,16.20
2023-04-09T11:23:01.354Z,16.10
2023-04-09T11:25:30.888Z,16.20
2023-04-09T11:27:59.130Z,16.40
2023-04-09T11:30:28.901Z,16.50
2023-04-09T11:32:56.952Z,16.60
2023-04-09T11:35:25.018Z,16.60
2023-04-09T11:37:54.066Z,16.60
2023-04-09T11:40:23.576Z,16.60
2023-04-09T11:42:53.078Z,16.60
2023-04-09T11:45:22.401Z,16.40
2023-04-09T11:47:52.094Z,16.40
2023-04-09T11:50:21.947Z,16.30
2023-04-09T11:52:50.712Z,16.30
2023-04-09T11:55:28.904Z,16.10
2023-04-09T11:58:00.884Z,16.00
2023-04-09T12:00:29.849Z,15.90
2023-04-09T12:03:03.820Z,15.90
2023-04-09T12:05:34.501Z,15.90
2023-04-09T12:08:04.884Z,16.00
2023-04-09T12:10:36.209Z,16.00
2023-04-09T12:13:05.203Z,16.00
2023-04-09T12:15:34.622Z,16.00
2023-04-09T12:18:04.440Z,16.00
2023-04-09T12:20:36.946Z,16.00
2023-04-09T12:23:05.824Z,16.00
2023-04-09T12:25:36.608Z,16.20
2023-04-09T12:28:05.671Z,16.40
2023-04-09T12:30:33.963Z,16.60
2023-04-09T12:33:04.112Z,16.70
2023-04-09T12:35:32.201Z,17.00
2023-04-09T12:38:00.650Z,17.20
2023-04-09T12:40:29.135Z,17.40
2023-04-09T12:42:57.008Z,17.60
2023-04-09T12:45:24.940Z,17.90
2023-04-09T12:47:52.942Z,18.20
2023-04-09T12:50:22.298Z,18.50
2023-04-09T12:52:50.403Z,18.80
2023-04-09T12:55:18.329Z,18.90
2023-04-09T12:57:47.676Z,19.10
2023-04-09T13:00:16.749Z,19.30
2023-04-09T13:02:44.810Z,19.30
2023-04-09T13:05:13.076Z,19.30
2023-04-09T13:07:43.516Z,19.10
2023-04-09T13:10:11.973Z,18.90
2023-04-09T13:12:40.016Z,18.60
2023-04-09T13:15:08.625Z,18.60
2023-04-09T13:17:36.618Z,18.60
2023-04-09T13:20:04.959Z,18.70
2023-04-09T13:22:32.989Z,18.60
2023-04-09T13:25:02.246Z,18.40
2023-04-09T13:27:30.362Z,18.20
2023-04-09T13:29:58.345Z,18.10
2023-04-09T13:32:26.206Z,18.10
2023-04-09T13:34:55.710Z,18.00
2023-04-09T13:37:23.604Z,17.80
2023-04-09T13:39:51.856Z,17.70
2023-04-09T13:42:21.080Z,17.70
2023-04-09T13:44:48.970Z,17.70
2023-04-09T13:47:18.120Z,17.80
2023-04-09T13:49:46.130Z,17.90
2023-04-09T13:52:15.732Z,17.80
2023-04-09T13:54:43.740Z,17.70
2023-04-09T13:57:11.649Z,17.50
2023-04-09T13:59:42.374Z,17.40
2023-04-09T14:02:10.724Z,17.20
2023-04-09T14:04:38.760Z,17.00
2023-04-09T14:07:07.289Z,17.00
2023-04-09T14:09:35.195Z,17.10
2023-04-09T14:12:03.105Z,17.10
2023-04-09T14:14:31.157Z,17.10
2023-04-09T14:17:00.379Z,17.10
2023-04-09T14:19:28.276Z,17.10
2023-04-09T14:21:56.322Z,17.10
2023-04-09T14:24:24.210Z,17.10
2023-04-09T14:26:53.585Z,17.20
2023-04-09T14:29:22.478Z,17.10
2023-04-09T14:31:51.740Z,17.10
2023-04-09T14:34:21.049Z,17.00
2023-04-09T14:36:49.097Z,16.90
2023-04-09T14:39:17.707Z,16.70
2023-04-09T14:41:45.606Z,16.60
2023-04-09T14:44:13.527Z,16.40
2023-04-09T14:46:41.569Z,16.40
2023-04-09T14:49:09.596Z,16.30
2023-04-09T14:51:38.901Z,16.30
2023-04-09T14:54:06.867Z,16.20
2023-04-09T14:56:34.735Z,16.20
2023-04-09T14:59:02.701Z,16.10
2023-04-09T15:01:32.531Z,16.00
2023-04-09T15:04:01.235Z,16.00
2023-04-09T15:06:31.344Z,16.00
2023-04-09T15:09:00.590Z,16.00
2023-04-09T15:11:29.420Z,15.90
2023-04-09T15:13:57.925Z,15.90
2023-04-09T15:16:27.637Z,15.90
2023-04-09T15:18:58.517Z,15.80
2023-04-09T15:21:27.066Z,15.90
2023-04-09T15:23:56.157Z,15.90
2023-04-09T15:26:25.716Z,15.90
2023-04-09T15:28:54.287Z,15.90
2023-04-09T15:31:22.418Z,15.90
2023-04-09T15:33:50.367Z,15.90
2023-04-09T15:36:18.291Z,16.00
2023-04-09T15:38:46.247Z,16.00
2023-04-09T15:41:16.822Z,16.00
2023-04-09T15:43:46.099Z,16.00
2023-04-09T15:46:16.270Z,16.00
2023-04-09T15:48:44.395Z,15.90
2023-04-09T15:51:12.565Z,15.80
2023-04-09T15:53:40.467Z,15.80
2023-04-09T15:56:10.353Z,15.80
2023-04-09T15:58:39.908Z,15.70
2023-04-09T16:01:10.420Z,15.70
2023-04-09T16:03:41.566Z,15.70
2023-04-09T16:06:13.171Z,15.60
2023-04-09T16:08:41.288Z,15.60
2023-04-09T16:11:09.630Z,15.60
2023-04-09T16:13:37.899Z,15.60
2023-04-09T16:16:07.282Z,15.50
2023-04-09T16:18:36.709Z,15.50
2023-04-09T16:21:05.717Z,15.40
2023-04-09T16:23:33.933Z,15.40
2023-04-09T16:26:01.906Z,15.40
2023-04-09T16:28:29.869Z,15.40
2023-04-09T16:30:57.818Z,15.40
2023-04-09T16:33:25.773Z,15.40
2023-04-09T16:35:55.344Z,15.40
2023-04-09T16:38:24.628Z,15.40
2023-04-09T16:40:52.584Z,15.40
2023-04-09T16:43:20.476Z,15.40
2023-04-09T16:45:48.474Z,15.30
2023-04-09T16:48:16.538Z,15.30
2023-04-09T16:50:44.664Z,15.30
2023-04-09T16:53:13.942Z,15.30
2023-04-09T16:55:42.781Z,15.30
2023-04-09T16:58:11.223Z,15.20
2023-04-09T17:00:40.053Z,15.20
2023-04-09T17:03:08.250Z,15.10
2023-04-09T17:05:36.410Z,15.10
2023-04-09T17:08:05.997Z,15.00
2023-04-09T17:10:37.904Z,15.00
2023-04-09T17:13:05.801Z,15.00
2023-04-09T17:15:34.273Z,14.90
2023-04-09T17:18:02.611Z,14.80
2023-04-09T17:20:31.169Z,14.80
2023-04-09T17:22:59.519Z,14.70
2023-04-09T17:25:27.777Z,14.70
2023-04-09T17:27:57.087Z,14.70
2023-04-09T17:30:25.209Z,14.70
2023-04-09T17:32:53.330Z,14.70
2023-04-09T17:35:21.356Z,14.70
2023-04-09T17:37:49.256Z,14.70
2023-04-09T17:40:18.657Z,14.70
2023-04-09T17:42:46.889Z,14.70
2023-04-09T17:45:16.383Z,14.60
2023-04-09T17:47:44.301Z,14.60
2023-04-09T17:50:12.938Z,14.60
2023-04-09T17:52:40.831Z,14.60
2023-04-09T17:55:11.625Z,14.50
2023-04-09T17:57:40.058Z,14.50
2023-04-09T18:00:09.104Z,14.50
2023-04-09T18:02:38.564Z,14.50
2023-04-09T18:05:07.100Z,14.40
2023-04-09T18:07:35.415Z,14.40
2023-04-09T18:10:04.573Z,14.40
2023-04-09T18:12:32.589Z,14.30
2023-04-09T18:15:00.558Z,14.20
2023-04-09T18:17:28.764Z,14.20
2023-04-09T18:19:58.648Z,14.10
2023-04-09T18:22:27.595Z,14.10
2023-04-09T18:24:55.800Z,14.10
2023-04-09T18:27:23.755Z,14.00
2023-04-09T18:29:51.690Z,13.90
2023-04-09T18:32:20.143Z,13.80
2023-04-09T18:34:48.194Z,13.80
2023-04-09T18:37:17.756Z,13.70
2023-04-09T18:39:46.809Z,13.60
2023-04-09T18:42:14.874Z,13.40
2023-04-09T18:44:42.904Z,13.30
2023-04-09T18:47:12.237Z,13.30
2023-04-09T18:49:40.433Z,13.20
2023-04-09T18:52:09.300Z,13.20
2023-04-09T18:54:38.951Z,13.10
2023-04-09T18:57:07.444Z,13.10
2023-04-09T18:59:35.613Z,13.10
2023-04-09T19:02:04.951Z,13.10
2023-04-09T19:04:36.147Z,13.10
2023-04-09T19:07:04.666Z,13.10
2023-04-09T19:09:33.110Z,13.10
2023-04-09T19:12:02.671Z,13.00
2023-04-09T19:14:30.653Z,12.90
2023-04-09T19:16:58.701Z,12.80
2023-04-09T19:19:27.375Z,12.70
2023-04-09T19:21:55.340Z,12.60
2023-04-09T19:24:23.601Z,12.50
2023-04-09T19:26:53.054Z,12.40
2023-04-09T19:29:22.264Z,12.40
2023-04-09T19:31:50.433Z,12.30
2023-04-09T19:34:18.390Z,12.30
2023-04-09T19:36:46.288Z,12.20
2023-04-09T19:39:15.507Z,12.10
2023-04-09T19:41:43.388Z,12.10
2023-04-09T19:44:11.404Z,12.00
2023-04-09T19:46:40.963Z,12.00
2023-04-09T19:49:09.033Z,12.00
2023-04-09T19:51:37.037Z,11.90
2023-04-09T19:54:05.057Z,11.90
2023-04-09T19:56:33.057Z,11.90
2023-04-09T19:59:00.942Z,11.80
2023-04-09T20:01:29.060Z,11.80
2023-04-09T20:03:58.648Z,11.70
2023-04-09T20:06:27.064Z,11.70
2023-04-09T20:08:56.018Z,11.60
2023-04-09T20:11:23.923Z,11.60
2023-04-09T20:13:51.869Z,11.50
2023-04-09T20:16:20.045Z,11.40
2023-04-09T20:18:48.014Z,11.30
2023-04-09T20:21:17.317Z,11.30
2023-04-09T20:23:45.876Z,11.20
2023-04-09T20:26:13.825Z,11.20
2023-04-09T20:28:43.088Z,11.20
2023-04-09T20:31:17.383Z,11.10
2023-04-09T20:33:45.328Z,11.10
2023-04-09T20:36:17.832Z,11.10
2023-04-09T20:38:46.092Z,11.20
2023-04-09T20:41:13.989Z,11.10
2023-04-09T20:43:41.956Z,11.20
2023-04-09T20:46:10.000Z,11.20
2023-04-09T20:48:37.977Z,11.20
2023-04-09T20:51:10.609Z,11.10
2023-04-09T20:53:39.896Z,11.10
2023-04-09T20:56:09.085Z,11.00
2023-04-09T20:58:37.220Z,11.00
2023-04-09T21:01:06.846Z,10.90
2023-04-09T21:03:35.844Z,10.80
2023-04-09T21:06:04.071Z,10.90
2023-04-09T21:08:31.934Z,10.80
2023-04-09T21:11:02.109Z,10.70
2023-04-09T21:13:32.171Z,10.70
2023-04-09T21:16:03.955Z,10.60
2023-04-09T21:18:33.326Z,10.60
2023-04-09T21:21:02.332Z,10.50
2023-04-09T21:23:30.193Z,10.50
2023-04-09T21:25:58.137Z,10.40
2023-04-09T21:28:27.499Z,10.30
2023-04-09T21:30:55.505Z,10.20
2023-04-09T21:33:23.511Z,10.20
2023-04-09T21:35:53.475Z,10.20
2023-04-09T21:38:21.431Z,10.20
2023-04-09T21:40:49.386Z,10.10
2023-04-09T21:43:17.313Z,10.10
2023-04-09T21:45:46.604Z,10.10
2023-04-09T21:48:14.539Z,10.10
2023-04-09T21:50:42.630Z,10.10
2023-04-09T21:53:10.960Z,10.10
2023-04-09T21:55:38.922Z,10.00
2023-04-09T21:58:08.160Z,10.00
2023-04-09T22:00:36.040Z,10.00
2023-04-09T22:03:05.403Z,10.00
2023-04-09T22:05:34.251Z,9.90
2023-04-09T22:08:02.288Z,9.90
2023-04-09T22:10:30.212Z,9.80
2023-04-09T22:12:58.193Z,9.70
2023-04-09T22:15:26.388Z,9.70
2023-04-09T22:17:54.391Z,9.70
2023-04-09T22:20:24.756Z,9.60
2023-04-09T22:22:52.838Z,9.60
2023-04-09T22:25:21.243Z,9.50
2023-04-09T22:27:52.323Z,9.50
2023-04-09T22:30:20.831Z,9.50
2023-04-09T22:32:48.777Z,9.40
2023-04-09T22:35:18.154Z,9.40
2023-04-09T22:37:47.625Z,9.30
2023-04-09T22:40:16.680Z,9.30
2023-04-09T22:42:44.885Z,9.20
2023-04-09T22:45:13.347Z,9.20
2023-04-09T22:47:41.343Z,9.20
2023-04-09T22:50:11.074Z,9.20
2023-04-09T22:52:38.992Z,9.20
2023-04-09T22:55:10.074Z,9.10
2023-04-09T22:57:38.420Z,9.10
2023-04-09T23:00:08.478Z,9.10
2023-04-09T23:02:37.011Z,9.00
2023-04-09T23:05:05.709Z,9.00
2023-04-09T23:07:33.655Z,8.90
2023-04-09T23:10:02.764Z,8.90
2023-04-09T23:12:32.039Z,8.80
2023-04-09T23:14:59.932Z,8.80
2023-04-09T23:17:27.838Z,8.80
2023-04-09T23:19:55.790Z,8.80
2023-04-09T23:22:24.249Z,8.80
2023-04-09T23:24:52.116Z,8.80
2023-04-09T23:27:20.088Z,8.80
2023-04-09T23:29:49.301Z,8.80
2023-04-09T23:32:17.307Z,8.80
2023-04-09T23:34:45.326Z,8.80
2023-04-09T23:37:13.202Z,8.80
2023-04-09T23:39:41.438Z,8.80
2023-04-09T23:42:09.347Z,8.80
2023-04-09T23:44:37.220Z,8.70
2023-04-09T23:47:06.655Z,8.70
2023-04-09T23:49:34.809Z,8.60
2023-04-09T23:52:02.689Z,8.60
2023-04-09T23:54:30.778Z,8.50
2023-04-09T23:56:58.783Z,8.50
2023-04-09T23:59:26.686Z,8.40
